createdAt,value
2018-11-26T00:00:21.461Z,96.54
2018-11-26T00:01:21.469Z,96.44
2018-11-26T00:02:21.438Z,96.85
2018-11-26T00:03:21.427Z,97.01
2018-11-26T00:04:21.416Z,96.85
2018-11-26T00:05:21.413Z,96.85
2018-11-26T00:06:21.413Z,96.44
2018-11-26T00:07:21.389Z,96.64
2018-11-26T00:08:21.374Z,96.64
2018-11-26T00:09:21.363Z,96.54
2018-11-26T00:10:21.353Z,96.70
2018-11-26T00:11:21.358Z,96.80
2018-11-26T00:12:21.331Z,96.70
2018-11-26T00:13:21.329Z,96.85
2018-11-26T00:14:21.314Z,96.85
2018-11-26T00:15:21.300Z,96.95
2018-11-26T00:16:21.302Z,96.75
2018-11-26T00:17:21.279Z,96.85
2018-11-26T00:18:21.269Z,96.54
2018-11-26T00:19:21.265Z,96.54
2018-11-26T00:20:21.253Z,96.54
2018-11-26T00:21:21.248Z,96.75
2018-11-26T00:22:21.229Z,97.06
2018-11-26T00:23:21.218Z,96.95
2018-11-26T00:24:21.208Z,97.06
2018-11-26T00:25:21.196Z,97.16
2018-11-26T00:26:21.209Z,97.67
2018-11-26T00:27:21.173Z,97.57
2018-11-26T00:28:21.164Z,97.67
2018-11-26T00:29:21.153Z,97.36
2018-11-26T00:30:21.143Z,97.47
2018-11-26T00:31:21.145Z,97.47
2018-11-26T00:32:21.130Z,97.06
2018-11-26T00:33:21.113Z,97.10
2018-11-26T00:34:21.124Z,97.67
2018-11-26T00:35:21.093Z,97.67
2018-11-26T00:36:21.099Z,97.47
2018-11-26T00:37:21.069Z,97.78
2018-11-26T00:38:21.065Z,97.67
2018-11-26T00:39:21.049Z,97.67
2018-11-26T00:40:21.038Z,97.83
2018-11-26T00:41:21.046Z,97.72
2018-11-26T00:42:21.018Z,98.13
2018-11-26T00:43:21.007Z,97.83
2018-11-26T00:44:20.999Z,97.67
2018-11-26T00:45:20.988Z,97.67
2018-11-26T00:46:20.995Z,97.93
2018-11-26T00:47:20.965Z,97.31
2018-11-26T00:48:20.957Z,97.52
2018-11-26T00:49:20.949Z,97.47
2018-11-26T00:50:20.934Z,97.57
2018-11-26T00:51:20.936Z,97.78
2018-11-26T00:52:20.922Z,97.78
2018-11-26T00:53:20.902Z,96.95
2018-11-26T00:54:20.894Z,97.06
2018-11-26T00:55:20.881Z,96.69
2018-11-26T00:56:20.885Z,97.10
2018-11-26T00:57:20.861Z,97.10
2018-11-26T00:58:20.856Z,96.69
2018-11-26T00:59:20.852Z,96.69
2018-11-26T01:00:20.829Z,96.54
2018-11-26T01:01:20.839Z,96.64
2018-11-26T01:02:20.809Z,96.79
2018-11-26T01:03:20.797Z,97.10
2018-11-26T01:04:20.786Z,96.89
2018-11-26T01:05:20.781Z,96.37
2018-11-26T01:06:21.006Z,96.58
2018-11-26T01:07:20.777Z,96.69
2018-11-26T01:08:20.744Z,96.48
2018-11-26T01:09:20.733Z,96.54
2018-11-26T01:10:20.730Z,96.54
2018-11-26T01:11:20.714Z,96.54
2018-11-26T01:12:20.721Z,96.48
2018-11-26T01:13:20.691Z,96.69
2018-11-26T01:14:20.681Z,96.27
2018-11-26T01:15:20.669Z,96.89
2018-11-26T01:16:20.663Z,96.79
2018-11-26T01:17:20.660Z,96.58
2018-11-26T01:18:20.646Z,96.79
2018-11-26T01:19:20.634Z,96.79
2018-11-26T01:20:20.616Z,96.79
2018-11-26T01:21:20.610Z,96.69
2018-11-26T01:22:20.614Z,96.89
2018-11-26T01:23:20.601Z,96.89
2018-11-26T01:24:20.583Z,96.89
2018-11-26T01:25:20.568Z,97.00
2018-11-26T01:26:20.555Z,97.00
2018-11-26T01:27:20.548Z,96.89
2018-11-26T01:28:20.549Z,96.89
2018-11-26T01:29:20.524Z,96.79
2018-11-26T01:30:20.514Z,96.79
2018-11-26T01:31:20.528Z,96.69
2018-11-26T01:32:20.523Z,96.73
2018-11-26T01:33:20.539Z,97.00
2018-11-26T01:34:20.491Z,97.45
2018-11-26T01:35:20.462Z,97.31
2018-11-26T01:36:20.455Z,97.93
2018-11-26T01:37:20.441Z,97.66
2018-11-26T01:38:20.442Z,97.45
2018-11-26T01:39:20.425Z,97.77
2018-11-26T01:40:20.416Z,97.56
2018-11-26T01:41:20.403Z,97.77
2018-11-26T01:42:20.395Z,97.66
2018-11-26T01:43:20.392Z,97.56
2018-11-26T01:44:20.368Z,96.79
2018-11-26T01:45:20.355Z,96.48
2018-11-26T01:46:20.344Z,96.48
2018-11-26T01:47:20.340Z,96.17
2018-11-26T01:48:20.342Z,96.17
2018-11-26T01:49:20.319Z,95.54
2018-11-26T01:50:20.302Z,95.44
2018-11-26T01:51:20.298Z,95.34
2018-11-26T01:52:20.281Z,95.44
2018-11-26T01:53:20.293Z,95.75
2018-11-26T01:54:20.263Z,96.17
2018-11-26T01:55:20.251Z,96.58
2018-11-26T01:56:20.241Z,96.58
2018-11-26T01:57:20.231Z,96.69
2018-11-26T01:58:20.235Z,96.89
2018-11-26T01:59:20.211Z,96.79
2018-11-26T02:00:20.199Z,96.69
2018-11-26T02:01:20.188Z,96.94
2018-11-26T02:02:20.179Z,97.04
2018-11-26T02:03:20.183Z,96.48
2018-11-26T02:04:20.165Z,96.37
2018-11-26T02:05:20.157Z,96.62
2018-11-26T02:06:20.143Z,97.14
2018-11-26T02:07:20.140Z,96.83
2018-11-26T02:08:20.128Z,97.04
2018-11-26T02:09:20.104Z,97.14
2018-11-26T02:10:20.094Z,96.83
2018-11-26T02:11:20.082Z,97.04
2018-11-26T02:12:20.074Z,97.04
2018-11-26T02:13:20.100Z,96.83
2018-11-26T02:14:20.054Z,96.62
2018-11-26T02:15:20.045Z,96.83
2018-11-26T02:16:20.038Z,96.73
2018-11-26T02:17:20.021Z,96.88
2018-11-26T02:18:20.010Z,96.52
2018-11-26T02:19:20.033Z,97.29
2018-11-26T02:20:19.990Z,97.04
2018-11-26T02:21:19.978Z,97.09
2018-11-26T02:22:19.969Z,97.19
2018-11-26T02:23:19.961Z,96.78
2018-11-26T02:24:19.962Z,96.57
2018-11-26T02:25:19.944Z,97.29
2018-11-26T02:26:19.950Z,97.39
2018-11-26T02:27:20.481Z,96.98
2018-11-26T02:28:19.905Z,96.88
2018-11-26T02:29:19.919Z,96.78
2018-11-26T02:30:19.889Z,96.57
2018-11-26T02:31:19.879Z,96.67
2018-11-26T02:32:19.864Z,96.88
2018-11-26T02:33:19.853Z,96.78
2018-11-26T02:34:19.866Z,96.78
2018-11-26T02:35:19.831Z,96.78
2018-11-26T02:36:19.821Z,96.88
2018-11-26T02:37:19.814Z,96.78
2018-11-26T02:38:19.803Z,96.67
2018-11-26T02:39:19.811Z,96.67
2018-11-26T02:40:19.779Z,96.67
2018-11-26T02:41:19.770Z,96.67
2018-11-26T02:42:19.757Z,96.67
2018-11-26T02:43:19.747Z,96.78
2018-11-26T02:44:19.752Z,97.19
2018-11-26T02:45:19.736Z,98.02
2018-11-26T02:46:19.717Z,97.60
2018-11-26T02:47:19.708Z,97.19
2018-11-26T02:48:19.695Z,97.86
2018-11-26T02:49:19.699Z,98.12
2018-11-26T02:50:19.672Z,97.91
2018-11-26T02:51:19.668Z,97.50
2018-11-26T02:52:19.654Z,97.39
2018-11-26T02:53:19.643Z,97.60
2018-11-26T02:54:19.646Z,97.60
2018-11-26T02:55:19.659Z,97.71
2018-11-26T02:56:19.615Z,97.81
2018-11-26T02:57:19.610Z,97.60
2018-11-26T02:58:19.590Z,97.55
2018-11-26T02:59:19.592Z,98.17
2018-11-26T03:00:19.570Z,97.86
2018-11-26T03:01:19.558Z,97.71
2018-11-26T03:02:19.548Z,97.96
2018-11-26T03:03:19.551Z,97.81
2018-11-26T03:04:19.540Z,97.81
2018-11-26T03:05:19.515Z,97.81
2018-11-26T03:06:19.506Z,97.81
2018-11-26T03:07:19.496Z,97.81
2018-11-26T03:08:19.489Z,97.19
2018-11-26T03:09:19.495Z,97.50
2018-11-26T03:10:19.464Z,97.50
2018-11-26T03:11:19.453Z,97.71
2018-11-26T03:12:19.446Z,97.60
2018-11-26T03:13:19.431Z,97.60
2018-11-26T03:14:19.436Z,97.19
2018-11-26T03:15:19.420Z,97.19
2018-11-26T03:16:19.401Z,97.86
2018-11-26T03:17:19.389Z,97.55
2018-11-26T03:18:19.385Z,97.60
2018-11-26T03:19:19.383Z,97.24
2018-11-26T03:20:19.360Z,97.86
2018-11-26T03:21:19.362Z,97.86
2018-11-26T03:22:19.337Z,97.96
2018-11-26T03:23:19.336Z,97.96
2018-11-26T03:24:19.331Z,97.86
2018-11-26T03:25:19.320Z,97.75
2018-11-26T03:26:19.296Z,97.96
2018-11-26T03:27:19.296Z,97.86
2018-11-26T03:28:19.289Z,97.86
2018-11-26T03:29:19.265Z,97.34
2018-11-26T03:30:19.262Z,98.17
2018-11-26T03:31:19.244Z,97.28
2018-11-26T03:32:19.232Z,97.86
2018-11-26T03:33:19.257Z,97.86
2018-11-26T03:34:19.212Z,97.75
2018-11-26T03:35:19.201Z,97.96
2018-11-26T03:36:19.191Z,97.90
2018-11-26T03:37:19.182Z,97.90
2018-11-26T03:38:19.183Z,98.11
2018-11-26T03:39:19.166Z,98.11
2018-11-26T03:40:19.153Z,98.21
2018-11-26T03:41:19.142Z,98.00
2018-11-26T03:42:19.128Z,98.11
2018-11-26T03:43:19.131Z,97.90
2018-11-26T03:44:19.108Z,97.90
2018-11-26T03:45:19.109Z,98.32
2018-11-26T03:46:19.087Z,98.42
2018-11-26T03:47:19.093Z,98.42
2018-11-26T03:48:19.082Z,98.83
2018-11-26T03:49:19.058Z,98.94
2018-11-26T03:50:19.044Z,98.94
2018-11-26T03:51:19.040Z,98.83
2018-11-26T03:52:19.024Z,98.63
2018-11-26T03:53:19.024Z,99.15
2018-11-26T03:54:19.000Z,98.94
2018-11-26T03:55:18.993Z,99.10
2018-11-26T03:56:18.979Z,98.38
2018-11-26T03:57:18.973Z,98.90
2018-11-26T03:58:18.976Z,98.79
2018-11-26T03:59:18.949Z,98.69
2018-11-26T04:00:18.950Z,98.07
2018-11-26T04:01:18.928Z,98.48
2018-11-26T04:02:18.924Z,98.58
2018-11-26T04:03:18.922Z,98.17
2018-11-26T04:04:18.910Z,98.07
2018-11-26T04:05:18.888Z,98.27
2018-11-26T04:06:18.876Z,97.86
2018-11-26T04:07:18.866Z,97.96
2018-11-26T04:08:18.868Z,97.96
2018-11-26T04:09:18.845Z,97.96
2018-11-26T04:10:18.852Z,97.90
2018-11-26T04:11:18.825Z,97.96
2018-11-26T04:12:18.815Z,97.86
2018-11-26T04:13:18.814Z,98.17
2018-11-26T04:14:18.792Z,97.96
2018-11-26T04:15:18.785Z,97.75
2018-11-26T04:16:18.773Z,97.75
2018-11-26T04:17:18.773Z,98.00
2018-11-26T04:18:18.763Z,98.42
2018-11-26T04:19:18.739Z,98.11
2018-11-26T04:20:18.729Z,98.00
2018-11-26T04:21:18.718Z,98.21
2018-11-26T04:22:18.708Z,98.42
2018-11-26T04:23:18.719Z,98.21
2018-11-26T04:24:18.687Z,98.73
2018-11-26T04:25:18.678Z,98.52
2018-11-26T04:26:18.666Z,99.35
2018-11-26T04:27:18.656Z,98.52
2018-11-26T04:28:18.659Z,98.36
2018-11-26T04:29:18.646Z,98.47
2018-11-26T04:30:18.623Z,98.78
2018-11-26T04:31:18.615Z,99.15
2018-11-26T04:32:18.603Z,99.15
2018-11-26T04:33:18.605Z,98.78
2018-11-26T04:34:18.582Z,98.78
2018-11-26T04:35:18.577Z,98.78
2018-11-26T04:36:18.565Z,98.78
2018-11-26T04:37:18.551Z,98.78
2018-11-26T04:38:18.551Z,99.09
2018-11-26T04:39:18.529Z,99.19
2018-11-26T04:40:18.518Z,99.09
2018-11-26T04:41:18.508Z,99.19
2018-11-26T04:42:18.507Z,99.19
2018-11-26T04:43:18.501Z,99.19
2018-11-26T04:44:18.478Z,98.99
2018-11-26T04:45:18.466Z,99.34
2018-11-26T04:46:18.454Z,99.09
2018-11-26T04:47:18.449Z,99.19
2018-11-26T04:48:18.458Z,99.30
2018-11-26T04:49:18.428Z,99.19
2018-11-26T04:50:18.413Z,99.51
2018-11-26T04:51:18.402Z,99.71
2018-11-26T04:52:18.391Z,99.24
2018-11-26T04:53:18.394Z,99.65
2018-11-26T04:54:18.371Z,99.86
2018-11-26T04:55:18.377Z,99.61
2018-11-26T04:56:18.352Z,99.76
2018-11-26T04:57:18.339Z,99.71
2018-11-26T04:58:18.341Z,99.92
2018-11-26T04:59:18.317Z,99.99
2018-11-26T05:00:18.314Z,99.19
2018-11-26T05:01:18.305Z,99.71
2018-11-26T05:02:18.286Z,99.61
2018-11-26T05:03:18.290Z,99.99
2018-11-26T05:04:18.264Z,99.51
2018-11-26T05:05:18.255Z,99.99
2018-11-26T05:06:18.244Z,99.30
2018-11-26T05:07:18.238Z,99.44
2018-11-26T05:08:18.248Z,99.61
2018-11-26T05:09:18.214Z,99.71
2018-11-26T05:10:18.202Z,99.51
2018-11-26T05:11:18.191Z,99.40
2018-11-26T05:12:18.181Z,99.30
2018-11-26T05:13:18.196Z,99.56
2018-11-26T05:14:18.174Z,99.71
2018-11-26T05:15:18.150Z,99.09
2018-11-26T05:16:18.138Z,98.94
2018-11-26T05:17:18.133Z,98.88
2018-11-26T05:18:18.117Z,99.15
2018-11-26T05:19:18.118Z,99.15
2018-11-26T05:20:18.102Z,99.19
2018-11-26T05:21:18.086Z,99.30
2018-11-26T05:22:18.081Z,98.78
2018-11-26T05:23:18.064Z,98.78
2018-11-26T05:24:18.067Z,98.78
2018-11-26T05:25:18.044Z,98.78
2018-11-26T05:26:18.036Z,98.99
2018-11-26T05:27:18.032Z,99.09
2018-11-26T05:28:18.020Z,99.19
2018-11-26T05:29:18.014Z,99.30
2018-11-26T05:30:17.990Z,99.19
2018-11-26T05:31:17.979Z,99.09
2018-11-26T05:32:17.971Z,99.30
2018-11-26T05:33:17.974Z,99.19
2018-11-26T05:34:17.961Z,99.09
2018-11-26T05:35:17.937Z,99.40
2018-11-26T05:36:17.931Z,99.03
2018-11-26T05:37:17.917Z,99.03
2018-11-26T05:38:17.907Z,98.93
2018-11-26T05:39:17.916Z,99.13
2018-11-26T05:40:17.885Z,99.55
2018-11-26T05:41:17.876Z,99.65
2018-11-26T05:42:17.864Z,99.65
2018-11-26T05:43:17.856Z,99.76
2018-11-26T05:44:17.855Z,99.76
2018-11-26T05:45:17.844Z,99.99
2018-11-26T05:46:17.820Z,99.99
2018-11-26T05:47:17.815Z,99.86
2018-11-26T05:48:17.799Z,99.34
2018-11-26T05:49:17.806Z,99.65
2018-11-26T05:50:17.779Z,99.44
2018-11-26T05:51:17.784Z,99.86
2018-11-26T05:52:17.757Z,99.86
2018-11-26T05:53:17.751Z,99.76
2018-11-26T05:54:17.752Z,99.55
2018-11-26T05:55:17.726Z,99.55
2018-11-26T05:56:17.715Z,99.76
2018-11-26T05:57:17.710Z,99.65
2018-11-26T05:58:17.694Z,99.99
2018-11-26T05:59:17.695Z,99.99
2018-11-26T06:00:17.673Z,99.86
2018-11-26T06:01:17.667Z,99.96
2018-11-26T06:02:17.651Z,99.96
2018-11-26T06:03:17.649Z,99.86
2018-11-26T06:04:17.642Z,99.96
2018-11-26T06:05:17.631Z,99.99
2018-11-26T06:06:17.612Z,99.96
2018-11-26T06:07:17.601Z,99.96
2018-11-26T06:08:17.588Z,99.86
2018-11-26T06:09:17.596Z,99.91
2018-11-26T06:10:17.566Z,99.99
2018-11-26T06:11:17.558Z,99.55
2018-11-26T06:12:17.547Z,99.86
2018-11-26T06:13:17.534Z,99.86
2018-11-26T06:14:17.573Z,99.86
2018-11-26T06:15:17.518Z,99.99
2018-11-26T06:16:17.513Z,99.99
2018-11-26T06:17:17.495Z,99.91
2018-11-26T06:18:17.483Z,99.96
2018-11-26T06:19:17.484Z,99.99
2018-11-26T06:20:17.465Z,99.70
2018-11-26T06:21:17.451Z,99.91
2018-11-26T06:22:17.449Z,99.76
2018-11-26T06:23:17.429Z,99.99
2018-11-26T06:24:17.434Z,99.99
2018-11-26T06:25:17.425Z,99.99
2018-11-26T06:26:17.399Z,99.99
2018-11-26T06:27:17.389Z,99.99
2018-11-26T06:28:17.387Z,99.99
2018-11-26T06:29:17.391Z,99.99
2018-11-26T06:30:17.361Z,99.99
2018-11-26T06:31:17.350Z,99.99
2018-11-26T06:32:17.338Z,99.99
2018-11-26T06:33:17.329Z,99.99
2018-11-26T06:34:17.338Z,99.99
2018-11-26T06:35:17.305Z,99.99
2018-11-26T06:36:17.295Z,99.99
2018-11-26T06:37:17.283Z,99.99
2018-11-26T06:38:17.273Z,99.99
2018-11-26T06:39:17.276Z,99.99
2018-11-26T06:40:17.263Z,99.99
2018-11-26T06:41:17.244Z,99.99
2018-11-26T06:42:17.232Z,99.99
2018-11-26T06:43:17.469Z,99.99
2018-11-26T06:44:17.223Z,99.99
2018-11-26T06:45:17.197Z,99.99
2018-11-26T06:46:17.191Z,99.99
2018-11-26T06:47:17.177Z,99.99
2018-11-26T06:48:17.167Z,99.99
2018-11-26T06:49:17.168Z,99.99
2018-11-26T06:50:17.186Z,99.99
2018-11-26T06:51:17.138Z,99.99
2018-11-26T06:52:17.130Z,99.99
2018-11-26T06:53:17.114Z,99.99
2018-11-26T06:54:17.118Z,99.99
2018-11-26T06:55:17.093Z,99.99
2018-11-26T06:56:17.084Z,99.99
2018-11-26T06:57:17.072Z,99.99
2018-11-26T06:58:17.065Z,99.99
2018-11-26T06:59:17.062Z,99.99
2018-11-26T07:00:17.040Z,99.99
2018-11-26T07:01:17.029Z,99.99
2018-11-26T07:02:17.023Z,99.98
2018-11-26T07:03:17.008Z,99.92
2018-11-26T07:04:17.033Z,99.66
2018-11-26T07:05:16.987Z,99.92
2018-11-26T07:06:16.977Z,99.99
2018-11-26T07:07:16.967Z,99.61
2018-11-26T07:08:16.955Z,99.66
2018-11-26T07:09:16.962Z,99.99
2018-11-26T07:10:16.949Z,99.35
2018-11-26T07:11:16.923Z,99.04
2018-11-26T07:12:16.913Z,99.66
2018-11-26T07:13:16.901Z,99.46
2018-11-26T07:14:16.904Z,99.25
2018-11-26T07:15:16.882Z,99.61
2018-11-26T07:16:16.877Z,99.46
2018-11-26T07:17:16.863Z,99.46
2018-11-26T07:18:16.850Z,99.66
2018-11-26T07:19:16.851Z,99.56
2018-11-26T07:20:16.829Z,99.66
2018-11-26T07:21:16.816Z,99.46
2018-11-26T07:22:16.813Z,99.56
2018-11-26T07:23:16.796Z,99.56
2018-11-26T07:24:16.800Z,99.46
2018-11-26T07:25:16.775Z,99.77
2018-11-26T07:26:16.764Z,99.56
2018-11-26T07:27:16.756Z,99.25
2018-11-26T07:28:16.759Z,99.56
2018-11-26T07:29:23.849Z,99.56
2018-11-26T07:30:17.726Z,99.98
2018-11-26T07:31:16.712Z,99.46
2018-11-26T07:32:16.701Z,99.77
2018-11-26T07:33:16.692Z,99.56
2018-11-26T07:34:16.699Z,99.52
2018-11-26T07:35:16.680Z,99.31
2018-11-26T07:36:16.661Z,98.94
2018-11-26T07:37:16.651Z,99.99
2018-11-26T07:38:16.639Z,99.10
2018-11-26T07:39:16.640Z,99.62
2018-11-26T07:40:16.616Z,98.90
2018-11-26T07:41:16.621Z,99.82
2018-11-26T07:42:16.599Z,99.66
2018-11-26T07:43:16.587Z,99.00
2018-11-26T07:44:16.589Z,98.79
2018-11-26T07:45:16.564Z,99.62
2018-11-26T07:46:16.555Z,99.41
2018-11-26T07:47:16.546Z,99.62
2018-11-26T07:48:16.533Z,99.41
2018-11-26T07:49:16.534Z,99.66
2018-11-26T07:50:16.514Z,99.10
2018-11-26T07:51:16.503Z,99.00
2018-11-26T07:52:16.496Z,99.72
2018-11-26T07:53:16.495Z,98.90
2018-11-26T07:54:16.483Z,99.41
2018-11-26T07:55:16.459Z,99.52
2018-11-26T07:56:16.449Z,99.41
2018-11-26T07:57:16.440Z,99.21
2018-11-26T07:58:16.432Z,99.99
2018-11-26T07:59:16.434Z,99.00
2018-11-26T08:00:16.413Z,98.90
2018-11-26T08:01:16.397Z,99.41
2018-11-26T08:02:16.388Z,99.52
2018-11-26T08:03:16.378Z,99.21
2018-11-26T08:04:16.378Z,99.62
2018-11-26T08:05:16.356Z,99.52
2018-11-26T08:06:16.349Z,99.52
2018-11-26T08:07:16.339Z,99.00
2018-11-26T08:08:16.328Z,99.41
2018-11-26T08:09:16.325Z,99.16
2018-11-26T08:10:16.311Z,99.37
2018-11-26T08:11:16.296Z,99.05
2018-11-26T08:12:16.335Z,98.74
2018-11-26T08:13:16.272Z,98.95
2018-11-26T08:14:16.290Z,99.05
2018-11-26T08:15:16.254Z,99.05
2018-11-26T08:16:16.242Z,98.74
2018-11-26T08:17:16.230Z,98.70
2018-11-26T08:18:16.224Z,98.64
2018-11-26T08:19:16.208Z,98.49
2018-11-26T08:20:16.256Z,98.49
2018-11-26T08:21:16.191Z,98.91
2018-11-26T08:22:16.178Z,98.60
2018-11-26T08:23:16.168Z,97.97
2018-11-26T08:24:16.163Z,97.97
2018-11-26T08:25:16.220Z,97.87
2018-11-26T08:26:16.142Z,97.66
2018-11-26T08:27:16.123Z,97.97
2018-11-26T08:28:16.123Z,98.13
2018-11-26T08:29:16.106Z,97.83
2018-11-26T08:30:16.109Z,97.62
2018-11-26T08:31:16.088Z,98.03
2018-11-26T08:32:16.075Z,97.62
2018-11-26T08:33:16.060Z,97.52
2018-11-26T08:34:16.050Z,97.52
2018-11-26T08:35:16.052Z,97.41
2018-11-26T08:36:16.034Z,97.52
2018-11-26T08:37:16.020Z,97.62
2018-11-26T08:38:16.007Z,97.31
2018-11-26T08:39:15.998Z,97.72
2018-11-26T08:40:16.003Z,97.83
2018-11-26T08:41:15.977Z,97.57
2018-11-26T08:42:15.978Z,97.26
2018-11-26T08:43:15.964Z,97.57
2018-11-26T08:44:15.947Z,96.95
2018-11-26T08:45:15.945Z,96.27
2018-11-26T08:46:15.924Z,96.33
2018-11-26T08:47:15.912Z,96.23
2018-11-26T08:48:15.903Z,95.61
2018-11-26T08:49:15.898Z,95.09
2018-11-26T08:50:15.893Z,95.09
2018-11-26T08:51:15.869Z,94.78
2018-11-26T08:52:15.862Z,95.09
2018-11-26T08:53:15.847Z,94.98
2018-11-26T08:54:15.840Z,94.57
2018-11-26T08:55:15.850Z,94.68
2018-11-26T08:56:16.013Z,94.68
2018-11-26T08:57:15.806Z,95.19
2018-11-26T08:58:15.796Z,94.26
2018-11-26T08:59:15.784Z,94.78
2018-11-26T09:00:15.956Z,94.68
2018-11-26T09:01:15.769Z,94.26
2018-11-26T09:02:15.754Z,94.26
2018-11-26T09:03:15.746Z,94.78
2018-11-26T09:04:15.730Z,94.57
2018-11-26T09:05:15.734Z,95.15
2018-11-26T09:06:15.712Z,95.21
2018-11-26T09:07:15.698Z,95.10
2018-11-26T09:08:15.687Z,95.17
2018-11-26T09:09:15.680Z,93.93
2018-11-26T09:10:15.696Z,93.10
2018-11-26T09:11:15.658Z,94.44
2018-11-26T09:12:15.644Z,94.44
2018-11-26T09:13:15.633Z,94.40
2018-11-26T09:14:15.627Z,94.19
2018-11-26T09:15:15.627Z,92.95
2018-11-26T09:16:15.602Z,92.70
2018-11-26T09:17:15.600Z,93.28
2018-11-26T09:18:15.582Z,92.25
2018-11-26T09:19:15.569Z,91.22
2018-11-26T09:20:15.638Z,91.22
2018-11-26T09:21:15.548Z,91.58
2018-11-26T09:22:15.538Z,90.97
2018-11-26T09:23:15.535Z,90.92
2018-11-26T09:24:15.518Z,88.96
2018-11-26T09:25:15.520Z,89.13
2018-11-26T09:26:15.495Z,87.27
2018-11-26T09:27:15.490Z,87.13
2018-11-26T09:28:15.475Z,87.54
2018-11-26T09:29:15.468Z,86.76
2018-11-26T09:30:15.467Z,87.44
2018-11-26T09:31:15.443Z,87.44
2018-11-26T09:32:15.437Z,86.15
2018-11-26T09:33:15.424Z,86.52
2018-11-26T09:34:15.413Z,86.66
2018-11-26T09:35:15.423Z,86.24
2018-11-26T09:36:15.390Z,86.60
2018-11-26T09:37:15.378Z,87.11
2018-11-26T09:38:15.370Z,87.59
2018-11-26T09:39:15.355Z,87.99
2018-11-26T09:40:15.360Z,88.26
2018-11-26T09:41:15.340Z,86.04
2018-11-26T09:42:15.331Z,86.55
2018-11-26T09:43:15.314Z,86.70
2018-11-26T09:44:15.303Z,87.35
2018-11-26T09:45:15.326Z,87.63
2018-11-26T09:46:15.281Z,88.29
2018-11-26T09:47:15.269Z,89.38
2018-11-26T09:48:15.264Z,88.35
2018-11-26T09:49:15.251Z,87.83
2018-11-26T09:50:15.239Z,87.83
2018-11-26T09:51:15.240Z,89.28
2018-11-26T09:52:15.216Z,88.14
2018-11-26T09:53:15.209Z,87.83
2018-11-26T09:54:15.198Z,89.42
2018-11-26T09:55:15.185Z,88.18
2018-11-26T09:56:15.189Z,89.01
2018-11-26T09:57:15.161Z,89.52
2018-11-26T09:58:15.151Z,89.46
2018-11-26T09:59:15.142Z,89.73
2018-11-26T10:00:15.134Z,89.67
2018-11-26T10:01:15.136Z,90.59
2018-11-26T10:02:15.108Z,90.49
2018-11-26T10:03:15.102Z,91.46
2018-11-26T10:04:15.086Z,91.16
2018-11-26T10:05:15.077Z,92.13
2018-11-26T10:06:15.078Z,92.02
2018-11-26T10:07:15.063Z,91.61
2018-11-26T10:08:15.086Z,92.64
2018-11-26T10:09:15.040Z,91.96
2018-11-26T10:10:15.026Z,92.44
2018-11-26T10:11:15.036Z,92.68
2018-11-26T10:12:15.016Z,92.79
2018-11-26T10:13:14.990Z,93.51
2018-11-26T10:14:14.980Z,92.68
2018-11-26T10:15:14.972Z,93.30
2018-11-26T10:16:14.972Z,93.10
2018-11-26T10:17:14.949Z,93.20
2018-11-26T10:18:14.937Z,93.10
2018-11-26T10:19:14.928Z,93.41
2018-11-26T10:20:14.924Z,94.03
2018-11-26T10:21:14.920Z,94.23
2018-11-26T10:22:14.894Z,94.44
2018-11-26T10:23:14.884Z,93.62
2018-11-26T10:24:14.876Z,93.20
2018-11-26T10:25:14.863Z,93.51
2018-11-26T10:26:14.916Z,93.72
2018-11-26T10:27:14.843Z,94.23
2018-11-26T10:28:14.832Z,93.51
2018-11-26T10:29:14.820Z,93.47
2018-11-26T10:30:14.810Z,94.19
2018-11-26T10:31:14.811Z,92.23
2018-11-26T10:32:14.796Z,92.64
2018-11-26T10:33:15.125Z,92.13
2018-11-26T10:34:14.766Z,92.74
2018-11-26T10:35:14.756Z,92.08
2018-11-26T10:36:14.757Z,92.66
2018-11-26T10:37:14.734Z,92.46
2018-11-26T10:38:14.725Z,91.98
2018-11-26T10:39:14.719Z,91.52
2018-11-26T10:40:14.709Z,92.55
2018-11-26T10:41:14.705Z,91.58
2018-11-26T10:42:14.692Z,91.01
2018-11-26T10:43:14.672Z,91.48
2018-11-26T10:44:14.663Z,91.28
2018-11-26T10:45:14.649Z,91.28
2018-11-26T10:46:14.664Z,90.66
2018-11-26T10:47:14.634Z,91.28
2018-11-26T10:48:14.619Z,90.86
2018-11-26T10:49:14.610Z,89.22
2018-11-26T10:50:15.104Z,89.52
2018-11-26T10:51:14.599Z,89.01
2018-11-26T10:52:14.575Z,89.52
2018-11-26T10:53:14.568Z,90.66
2018-11-26T10:54:14.553Z,90.14
2018-11-26T10:55:14.541Z,91.07
2018-11-26T10:56:14.544Z,89.32
2018-11-26T10:57:14.522Z,90.55
2018-11-26T10:58:14.511Z,91.34
2018-11-26T10:59:14.508Z,89.69
2018-11-26T11:00:14.489Z,89.89
2018-11-26T11:01:14.496Z,90.51
2018-11-26T11:02:14.468Z,90.04
2018-11-26T11:03:14.457Z,90.82
2018-11-26T11:04:14.452Z,88.90
2018-11-26T11:05:14.444Z,88.49
2018-11-26T11:06:14.437Z,90.45
2018-11-26T11:07:14.416Z,91.07
2018-11-26T11:08:14.404Z,91.38
2018-11-26T11:09:14.391Z,90.97
2018-11-26T11:10:14.384Z,90.86
2018-11-26T11:11:14.391Z,90.86
2018-11-26T11:12:14.364Z,90.91
2018-11-26T11:13:14.349Z,91.11
2018-11-26T11:14:14.340Z,91.22
2018-11-26T11:15:14.331Z,90.49
2018-11-26T11:16:14.331Z,90.70
2018-11-26T11:17:14.312Z,92.35
2018-11-26T11:18:14.305Z,91.73
2018-11-26T11:19:14.288Z,91.63
2018-11-26T11:20:14.275Z,91.11
2018-11-26T11:21:14.275Z,90.80
2018-11-26T11:22:14.255Z,92.25
2018-11-26T11:23:14.243Z,91.32
2018-11-26T11:24:14.235Z,91.07
2018-11-26T11:25:14.221Z,91.11
2018-11-26T11:26:14.222Z,90.45
2018-11-26T11:27:14.383Z,92.21
2018-11-26T11:28:14.192Z,91.38
2018-11-26T11:29:14.177Z,90.86
2018-11-26T11:30:14.171Z,91.17
2018-11-26T11:31:14.171Z,89.94
2018-11-26T11:32:14.146Z,89.56
2018-11-26T11:33:43.951Z,91.01
2018-11-26T11:34:43.938Z,90.70
2018-11-26T11:35:43.929Z,89.87
2018-11-26T11:36:43.935Z,90.91
2018-11-26T11:37:43.914Z,90.28
2018-11-26T11:38:44.057Z,91.11
2018-11-26T11:39:44.237Z,89.83
2018-11-26T11:40:43.876Z,89.25
2018-11-26T11:41:43.876Z,90.91
2018-11-26T11:42:43.881Z,89.87
2018-11-26T11:43:43.846Z,90.14
2018-11-26T11:44:43.831Z,88.80
2018-11-26T11:45:43.829Z,89.15
2018-11-26T11:46:43.824Z,89.01
2018-11-26T11:47:43.799Z,89.83
2018-11-26T11:48:43.793Z,89.73
2018-11-26T11:49:43.781Z,89.42
2018-11-26T11:50:43.775Z,89.87
2018-11-26T11:51:43.768Z,89.32
2018-11-26T11:52:43.747Z,89.87
2018-11-26T11:53:43.733Z,89.56
2018-11-26T11:54:43.731Z,89.46
2018-11-26T11:55:43.714Z,89.67
2018-11-26T11:56:43.717Z,88.53
2018-11-26T11:57:43.692Z,88.43
2018-11-26T11:58:43.687Z,89.94
2018-11-26T11:59:43.672Z,90.45
2018-11-26T12:00:43.662Z,89.73
2018-11-26T12:01:43.677Z,89.73
2018-11-26T12:02:43.640Z,90.92
2018-11-26T12:03:43.628Z,90.35
2018-11-26T12:04:43.636Z,89.32
2018-11-26T12:05:43.611Z,89.28
2018-11-26T12:06:43.609Z,88.86
2018-11-26T12:07:43.594Z,87.77
2018-11-26T12:08:43.580Z,88.04
2018-11-26T12:09:43.564Z,88.70
2018-11-26T12:10:43.553Z,88.45
2018-11-26T12:11:43.556Z,88.35
2018-11-26T12:12:43.533Z,89.38
2018-11-26T12:13:43.521Z,88.76
2018-11-26T12:14:43.514Z,87.63
2018-11-26T12:15:43.504Z,88.24
2018-11-26T12:16:43.502Z,87.83
2018-11-26T12:17:43.479Z,87.63
2018-11-26T12:18:43.467Z,87.63
2018-11-26T12:19:43.498Z,88.24
2018-11-26T12:20:43.447Z,87.56
2018-11-26T12:21:43.460Z,87.66
2018-11-26T12:22:43.425Z,88.29
2018-11-26T12:23:43.420Z,89.01
2018-11-26T12:24:43.407Z,87.93
2018-11-26T12:25:43.396Z,87.42
2018-11-26T12:26:43.396Z,87.98
2018-11-26T12:27:43.380Z,88.39
2018-11-26T12:28:43.368Z,88.24
2018-11-26T12:29:43.351Z,87.35
2018-11-26T12:30:43.342Z,88.45
2018-11-26T12:31:43.342Z,87.56
2018-11-26T12:32:43.319Z,87.32
2018-11-26T12:33:43.309Z,88.14
2018-11-26T12:34:43.308Z,87.63
2018-11-26T12:35:43.289Z,87.01
2018-11-26T12:36:43.291Z,86.39
2018-11-26T12:37:43.266Z,86.49
2018-11-26T12:38:43.256Z,87.38
2018-11-26T12:39:43.245Z,88.35
2018-11-26T12:40:43.242Z,88.10
2018-11-26T12:41:43.240Z,88.41
2018-11-26T12:42:43.220Z,87.59
2018-11-26T12:43:43.205Z,88.41
2018-11-26T12:44:43.193Z,87.59
2018-11-26T12:45:43.183Z,87.59
2018-11-26T12:46:43.183Z,87.07
2018-11-26T12:47:43.160Z,87.59
2018-11-26T12:48:43.150Z,87.38
2018-11-26T12:49:43.138Z,87.48
2018-11-26T12:50:43.129Z,87.69
2018-11-26T12:51:43.133Z,87.63
2018-11-26T12:52:43.106Z,87.63